Etusivu
METAR-TAF:

METAR-TAF

Lentoasemat :

Fort Rucker, Alabama, Yhdysvallat

Leveyspiiri: 31-21N, Pituuspiiri: 085-40W, korkeus merenpinnasta: 97 m

Tämänhetkinen sää

Tämä raportti tehtiin 19 minuuttia sitten, kello 00.30 UTC
Tuuli 4 kn pohjoisen/luoteesta
Lämpötila 16°C
Kosteus 100%
Ilmanpaine 1013 hPa
Näkyvyys: 2.2 km
Muutamia pilviä 700 ft:n korkeudessa
Hajanaisia pilviä 2100 ft:n korkeudessa
Pilvistä 7000 ft:n korkeudessa
sadetta, utua

METAR: KHEY 260030Z AUTO 33004KT 1 3/8SM RA BR FEW007 SCT021 OVC070 16/16 A2992 RMK AO2 VIS 7/8V1 3/8 LTG DSNT NE AND SW-NW SLP133

Aika: 19:49 (00:49 UTC)


TAF: puuttuu

Säähavainnot ja -ennusteet yli 4000 lentoasemalta (METAR- ja TAF-raportit).

Käytössä olevat sääasemat on merkitty karttaan keltaisilla ja punaisilla pisteillä.

Aseta hiiri pisteen päälle nähdäksesi sääaseman nimen.

Klikkaa sitten nähdäksesi säähavainnot ja -ennusteet.

Kartan vaihtaminen: klikkaa mustalla rastilla varustettuja vihreitä pisteitä, niin voit zoomata sisään; viivalla varustettua vihreää pistettä, niin voit zoomata ulos tai vihreitä nuolia, niin pääset viereisille kartoille.


METAR-TAF: